Terminal Aerodrome Forecast
Issued by NWS Grand Junction, CO

Home | Current Version | Previous Version | Text Only | Print | Product List | Glossary On
Versions: 1 2 3 4 5 6 7 8 9 10 11 12 13 14 15 16 17 18 19 20 21 22 23 24 25 26
401
FTUS45 KGJT 291735
TAFGJT
TAF
KGJT 291735Z 2918/3018 31008KT P6SM FEW070 FEW120
     FM300200 04005KT P6SM FEW110
     FM300500 10008KT P6SM FEW100
     FM301500 13008KT P6SM SCT090=

USA.gov is the U.S. government's official web portal to all federal, state and local government web resources and services.